createdAt,value
2023-05-04T00:19:28.115Z,7.36
2023-05-04T00:39:30.975Z,6.93
2023-05-04T00:59:33.591Z,6.88
2023-05-04T01:19:36.246Z,6.27
2023-05-04T01:39:38.904Z,6.16
2023-05-04T01:59:41.526Z,6.25
2023-05-04T02:19:44.144Z,5.43
2023-05-04T02:39:46.782Z,5.76
2023-05-04T02:59:49.411Z,5.73
2023-05-04T03:19:52.030Z,5.67
2023-05-04T03:39:54.628Z,5.49
2023-05-04T03:59:57.927Z,5.73
2023-05-04T04:20:00.700Z,6.52
2023-05-04T04:40:03.860Z,8.55
2023-05-04T05:00:10.603Z,9.88
2023-05-04T05:20:13.415Z,11.54
2023-05-04T05:40:16.605Z,12.87
2023-05-04T06:00:19.251Z,13.50
2023-05-04T06:20:21.912Z,13.98
2023-05-04T06:40:24.536Z,13.99
2023-05-04T07:00:27.395Z,13.83
2023-05-04T07:20:30.130Z,13.79
2023-05-04T07:40:32.760Z,14.13
2023-05-04T08:00:35.476Z,14.13
2023-05-04T08:20:38.717Z,14.53
2023-05-04T08:40:41.368Z,15.06
2023-05-04T09:00:44.849Z,14.89
2023-05-04T09:20:50.729Z,15.63
2023-05-04T09:40:53.533Z,16.04
2023-05-04T10:00:56.317Z,16.08
2023-05-04T10:20:59.186Z,16.01
2023-05-04T10:41:01.821Z,16.23
2023-05-04T11:01:04.500Z,16.79
2023-05-04T11:21:07.445Z,16.62
2023-05-04T11:41:10.243Z,17.31
2023-05-04T12:01:12.952Z,17.78
2023-05-04T12:21:16.017Z,17.97
2023-05-04T12:41:18.655Z,17.52
2023-05-04T13:01:21.337Z,17.37
2023-05-04T13:21:23.994Z,18.17
2023-05-04T13:41:26.627Z,18.36
2023-05-04T14:01:29.699Z,18.37
2023-05-04T14:21:32.694Z,18.12
2023-05-04T14:41:36.853Z,18.28
2023-05-04T15:01:39.669Z,18.20
2023-05-04T15:21:43.036Z,18.16
2023-05-04T15:41:45.768Z,18.14
2023-05-04T16:01:48.971Z,18.02
2023-05-04T16:21:51.974Z,17.71
2023-05-04T16:41:54.628Z,17.51
2023-05-04T17:01:58.769Z,17.39
2023-05-04T17:22:01.497Z,16.81
2023-05-04T17:42:04.229Z,16.25
2023-05-04T18:02:08.121Z,15.52
2023-05-04T18:22:10.902Z,14.80
2023-05-04T18:42:13.624Z,14.16
2023-05-04T19:02:16.603Z,13.68
2023-05-04T19:22:19.561Z,13.43
2023-05-04T19:42:22.230Z,13.24
2023-05-04T20:02:25.005Z,13.04
2023-05-04T20:22:28.035Z,12.75
2023-05-04T20:42:30.726Z,12.52
2023-05-04T21:02:33.553Z,12.28
2023-05-04T21:22:36.584Z,11.98
2023-05-04T21:42:39.198Z,11.90
2023-05-04T22:02:42.183Z,11.81
2023-05-04T22:22:45.454Z,11.63
2023-05-04T22:42:48.154Z,11.32
2023-05-04T23:02:51.195Z,11.40
2023-05-04T23:22:54.432Z,11.26
2023-05-04T23:42:57.137Z,11.13
